Time;durP1;ratioP1;P1;durP2;ratioP2;P2;SDS_P1;SDS_P2;PMS_P1;PMS_P2;Temp;Humidity;BMP_temperature;BMP_pressure;BME280_temperature;BME280_humidity;BME280_pressure;Samples;Min_cycle;Max_cycle;Signal;HPM_P1;HPM_P2
2023/03/11 00:02:02;;;;;;;5.70;0.80;;;;;;;1.40;84.58;100650.88;5072370;28;20038;-50
2023/03/11 00:04:27;;;;;;;6.65;1.98;;;;;;;1.39;82.85;100654.47;5072461;28;20112;-51
2023/03/11 00:06:52;;;;;;;6.28;0.70;;;;;;;1.39;83.57;100654.47;5072485;28;20111;-49
2023/03/11 00:09:18;;;;;;;11.07;1.13;;;;;;;1.39;85.15;100659.78;5072784;28;20115;-49
2023/03/11 00:11:43;;;;;;;13.35;1.02;;;;;;;1.38;83.61;100658.13;5071978;28;20021;-50
2023/03/11 00:14:08;;;;;;;7.72;0.93;;;;;;;1.35;84.35;100676.94;5073007;28;20455;-49
2023/03/11 00:16:34;;;;;;;11.25;0.88;;;;;;;1.33;84.49;100665.59;5071861;28;20042;-51
2023/03/11 00:18:59;;;;;;;18.48;1.30;;;;;;;1.29;86.15;100674.78;5071641;28;20036;-49
2023/03/11 00:21:25;;;;;;;10.57;1.00;;;;;;;1.26;86.54;100670.59;5072085;28;20082;-48
2023/03/11 00:23:50;;;;;;;5.28;0.77;;;;;;;1.28;85.81;100686.34;5072339;28;20033;-49
2023/03/11 00:26:15;;;;;;;13.10;0.93;;;;;;;1.30;85.57;100692.38;5072285;28;20035;-50
2023/03/11 00:28:41;;;;;;;9.85;1.08;;;;;;;1.29;88.23;100694.19;5071917;28;20115;-48
2023/03/11 00:31:06;;;;;;;15.23;1.98;;;;;;;1.30;86.47;100697.69;5071557;28;20442;-49
2023/03/11 00:33:31;;;;;;;8.35;0.73;;;;;;;1.29;89.44;100709.25;5071876;28;20145;-49
2023/03/11 00:35:57;;;;;;;10.25;1.25;;;;;;;1.26;88.60;100705.06;5071508;28;20112;-48
2023/03/11 00:38:22;;;;;;;10.00;1.23;;;;;;;1.29;89.65;100711.88;5071859;28;20048;-50
2023/03/11 00:40:48;;;;;;;13.15;1.10;;;;;;;1.29;90.34;100709.25;5071154;28;20046;-50
2023/03/11 00:43:14;;;;;;;9.88;1.20;;;;;;;1.35;90.42;100706.09;5071405;28;20028;-50
2023/03/11 00:45:39;;;;;;;18.83;1.23;;;;;;;1.40;92.15;100705.72;5071741;28;20031;-49
2023/03/11 00:48:05;;;;;;;5.07;1.38;;;;;;;1.37;92.73;100709.47;5071521;28;20428;-49
2023/03/11 00:50:32;;;;;;;11.23;0.98;;;;;;;1.42;94.91;100709.94;5071021;28;20032;-49
2023/03/11 00:52:59;;;;;;;8.90;1.30;;;;;;;1.39;94.28;100711.97;5071521;28;20062;-48
2023/03/11 00:55:27;;;;;;;13.90;1.73;;;;;;;1.34;94.89;100704.41;5071772;28;20107;-48
2023/03/11 00:57:54;;;;;;;15.90;1.40;;;;;;;1.33;94.58;100708.03;5071302;28;20052;-48
2023/03/11 01:00:21;;;;;;;19.13;1.17;;;;;;;1.34;96.69;100712.34;5066214;28;20273;-49
2023/03/11 01:02:47;;;;;;;14.50;1.67;;;;;;;1.32;98.05;100714.31;5071548;28;20032;-49
2023/03/11 01:05:13;;;;;;;5.55;1.08;;;;;;;1.30;97.87;100716.25;5071647;28;20037;-50
2023/03/11 01:07:38;;;;;;;16.80;1.33;;;;;;;1.24;100.00;100709.63;5071204;28;20466;-49
2023/03/11 01:10:05;;;;;;;12.52;1.30;;;;;;;1.24;100.00;100722.06;5071093;28;20028;-51
2023/03/11 01:12:31;;;;;;;16.33;1.10;;;;;;;1.20;100.00;100720.59;5070825;28;20028;-52
2023/03/11 01:14:56;;;;;;;10.43;0.80;;;;;;;1.17;100.00;100718.22;5071363;28;20103;-50
2023/03/11 01:17:21;;;;;;;6.72;0.90;;;;;;;1.14;100.00;100723.75;5070746;28;20039;-49
2023/03/11 01:19:47;;;;;;;13.35;1.05;;;;;;;1.12;100.00;100721.22;5071313;28;20092;-51
2023/03/11 01:22:13;;;;;;;7.53;0.90;;;;;;;1.12;100.00;100717.72;5070669;28;20028;-49
2023/03/11 01:24:38;;;;;;;11.10;1.42;;;;;;;1.13;100.00;100722.06;5070800;28;20393;-50
2023/03/11 01:27:04;;;;;;;15.27;1.10;;;;;;;1.11;100.00;100719.56;5070276;28;20024;-48
2023/03/11 01:29:29;;;;;;;7.57;0.75;;;;;;;1.14;100.00;100714.00;5069654;28;20116;-49
2023/03/11 01:31:55;;;;;;;6.90;0.73;;;;;;;1.20;100.00;100717.94;5070249;28;20033;-49
2023/03/11 01:34:20;;;;;;;11.93;0.77;;;;;;;1.31;100.00;100728.53;5070365;28;20112;-48
2023/03/11 01:36:45;;;;;;;7.05;0.60;;;;;;;1.29;100.00;100727.78;5070337;28;20024;-49
2023/03/11 01:39:11;;;;;;;9.55;1.20;;;;;;;1.28;100.00;100726.13;5069804;28;20502;-50
2023/03/11 01:41:36;;;;;;;10.73;1.13;;;;;;;1.26;100.00;100733.34;5070383;28;20037;-51
2023/03/11 01:44:03;;;;;;;12.23;1.10;;;;;;;1.28;100.00;100732.25;5070065;28;20035;-49
2023/03/11 01:46:36;;;;;;;6.70;1.00;;;;;;;1.34;100.00;100736.22;5070933;28;20029;-48
2023/03/11 01:49:04;;;;;;;2.88;0.80;;;;;;;1.32;100.00;100732.88;5059455;28;20028;-50
2023/03/11 01:51:36;;;;;;;8.73;2.22;;;;;;;1.33;100.00;100739.84;5069858;28;20031;-49
2023/03/11 01:54:07;;;;;;;12.60;1.42;;;;;;;1.34;100.00;100741.53;5063233;28;20097;-51
2023/03/11 01:56:34;;;;;;;18.08;1.60;;;;;;;1.36;100.00;100739.59;5066499;28;20410;-49
2023/03/11 01:58:59;;;;;;;17.98;0.90;;;;;;;1.37;100.00;100740.44;5070615;28;20036;-51
2023/03/11 02:01:25;;;;;;;11.95;1.35;;;;;;;1.35;100.00;100747.69;5070497;28;20029;-50
2023/03/11 02:03:50;;;;;;;8.82;0.90;;;;;;;1.36;100.00;100744.91;5070333;28;20032;-50
2023/03/11 02:06:19;;;;;;;7.93;1.25;;;;;;;1.41;100.00;100748.03;5070321;28;20530;-49
2023/03/11 02:08:45;;;;;;;7.22;1.58;;;;;;;1.51;99.95;100743.66;5069546;28;20527;-48
2023/03/11 02:11:16;;;;;;;11.32;1.38;;;;;;;1.50;99.21;100746.41;5069197;28;20023;-48
2023/03/11 02:13:42;;;;;;;13.25;0.80;;;;;;;1.46;97.99;100745.84;5069440;28;20044;-49
2023/03/11 02:16:07;;;;;;;11.75;1.10;;;;;;;1.53;97.80;100747.03;5069772;28;20021;-49
2023/03/11 02:18:33;;;;;;;14.30;1.08;;;;;;;1.53;98.09;100751.50;5063734;28;20039;-49
2023/03/11 02:21:20;;;;;;;9.38;1.20;;;;;;;1.52;98.16;100740.00;5069949;28;20032;-49
2023/03/11 02:23:55;;;;;;;4.68;0.80;;;;;;;1.48;96.28;100746.56;5069212;28;20028;-50
2023/03/11 02:26:40;;;;;;;7.38;0.70;;;;;;;1.48;96.36;100738.59;5069988;28;20335;-51
2023/03/11 02:29:06;;;;;;;5.32;0.43;;;;;;;1.47;94.37;100736.06;5064908;28;20363;-50
2023/03/11 02:31:32;;;;;;;11.43;0.90;;;;;;;1.38;96.60;100742.13;5061115;28;20510;-49
2023/03/11 02:34:00;;;;;;;7.78;0.65;;;;;;;1.37;95.43;100740.44;5050014;28;20033;-49
2023/03/11 02:36:44;;;;;;;3.85;0.73;;;;;;;1.24;96.24;100745.91;5069473;28;20029;-49
2023/03/11 02:39:09;;;;;;;11.90;1.00;;;;;;;1.21;96.65;100735.53;5062570;28;20071;-51
2023/03/11 02:41:42;;;;;;;12.77;1.15;;;;;;;1.19;95.97;100737.50;5066861;28;20056;-49
2023/03/11 02:44:10;;;;;;;13.70;1.10;;;;;;;1.20;96.50;100741.81;5069595;28;20028;-49
2023/03/11 02:46:36;;;;;;;5.53;0.50;;;;;;;1.17;94.81;100739.41;5051602;28;20086;-51
2023/03/11 02:49:02;;;;;;;9.85;1.30;;;;;;;1.16;94.73;100743.00;5067323;28;20074;-49
2023/03/11 02:51:27;;;;;;;4.63;0.90;;;;;;;1.15;95.38;100741.34;5058428;28;20428;-49
2023/03/11 02:53:56;;;;;;;8.23;0.77;;;;;;;1.16;95.82;100757.13;5069568;28;20029;-50
2023/03/11 02:56:22;;;;;;;12.90;1.33;;;;;;;1.11;98.22;100759.31;5071426;28;20032;-50
2023/03/11 02:58:47;;;;;;;7.95;1.10;;;;;;;1.15;96.53;100751.94;5075725;28;20039;-51
2023/03/11 03:01:13;;;;;;;11.40;1.08;;;;;;;1.10;97.66;100758.44;5075136;28;20077;-49
2023/03/11 03:03:38;;;;;;;12.02;0.82;;;;;;;1.06;98.27;100757.03;5076280;28;20029;-49
2023/03/11 03:06:04;;;;;;;8.77;0.90;;;;;;;1.04;99.18;100763.41;5075622;28;20032;-50
2023/03/11 03:08:30;;;;;;;8.10;0.75;;;;;;;1.03;98.79;100764.38;5075558;28;20024;-50
2023/03/11 03:10:55;;;;;;;4.28;0.68;;;;;;;1.05;99.97;100763.28;5075692;28;20382;-51
2023/03/11 03:13:20;;;;;;;9.48;0.98;;;;;;;1.03;100.00;100767.03;5076190;28;20071;-48
2023/03/11 03:15:45;;;;;;;12.02;1.13;;;;;;;0.94;100.00;100765.94;5073524;28;20052;-51
2023/03/11 03:18:11;;;;;;;3.83;0.95;;;;;;;0.88;100.00;100769.09;5075934;28;20067;-52
2023/03/11 03:20:36;;;;;;;6.43;1.00;;;;;;;0.84;100.00;100776.44;5075801;28;20044;-51
2023/03/11 03:23:01;;;;;;;24.00;2.35;;;;;;;0.90;100.00;100774.28;5075981;28;20564;-50
2023/03/11 03:25:27;;;;;;;6.97;0.70;;;;;;;0.90;100.00;100775.09;5076912;28;20055;-51
2023/03/11 03:27:53;;;;;;;4.68;1.00;;;;;;;0.88;100.00;100771.72;5077129;28;20181;-50
2023/03/11 03:30:19;;;;;;;16.05;1.20;;;;;;;0.88;100.00;100782.31;5076862;28;20040;-50
2023/03/11 03:32:44;;;;;;;10.85;1.00;;;;;;;0.91;100.00;100787.38;5076880;28;20055;-51
2023/03/11 03:35:10;;;;;;;20.05;2.33;;;;;;;0.85;100.00;100785.22;5077117;28;20099;-48
2023/03/11 03:37:36;;;;;;;13.85;1.25;;;;;;;0.81;100.00;100791.72;5076807;28;20348;-50
2023/03/11 03:40:06;;;;;;;14.40;1.50;;;;;;;0.81;100.00;100797.00;5072543;28;20108;-50
2023/03/11 03:42:35;;;;;;;9.35;1.00;;;;;;;0.87;100.00;100797.38;5076941;28;20036;-52
2023/03/11 03:45:01;;;;;;;13.23;1.38;;;;;;;0.96;100.00;100801.09;5076716;28;20039;-50
2023/03/11 03:47:26;;;;;;;6.70;1.27;;;;;;;0.95;100.00;100802.09;5077376;28;20025;-50
2023/03/11 03:49:51;;;;;;;8.10;1.10;;;;;;;0.90;100.00;100809.56;5076337;28;20025;-50
2023/03/11 03:52:17;;;;;;;16.83;0.90;;;;;;;0.88;100.00;100808.81;5076879;28;20033;-49
2023/03/11 03:54:42;;;;;;;14.23;1.98;;;;;;;0.89;100.00;100815.78;5076172;28;20059;-49
2023/03/11 03:57:08;;;;;;;12.35;1.77;;;;;;;0.87;100.00;100812.44;5057972;28;20086;-49
2023/03/11 03:59:33;;;;;;;7.63;0.80;;;;;;;0.88;100.00;100820.25;5055106;28;20416;-51
2023/03/11 04:01:59;;;;;;;12.93;1.15;;;;;;;0.91;100.00;100807.75;5065721;28;20029;-50
2023/03/11 04:04:25;;;;;;;13.18;0.98;;;;;;;0.86;100.00;100816.03;5073462;28;20028;-50
2023/03/11 04:06:50;;;;;;;13.68;1.38;;;;;;;0.83;100.00;100816.28;5074458;28;20142;-50
2023/03/11 04:09:16;;;;;;;9.18;1.92;;;;;;;0.73;100.00;100812.66;5072975;28;20020;-51
2023/03/11 04:11:41;;;;;;;8.68;0.85;;;;;;;0.63;100.00;100808.09;5072934;28;20116;-49
2023/03/11 04:14:06;;;;;;;10.23;1.20;;;;;;;0.69;100.00;100813.88;5071732;28;20035;-49
2023/03/11 04:16:32;;;;;;;5.55;0.70;;;;;;;0.57;100.00;100810.34;5073714;28;20025;-51
2023/03/11 04:18:57;;;;;;;9.88;0.98;;;;;;;0.50;100.00;100809.13;5073223;28;20352;-51
2023/03/11 04:21:23;;;;;;;16.58;1.30;;;;;;;0.43;100.00;100811.41;5073058;28;20112;-51
2023/03/11 04:23:48;;;;;;;7.38;0.95;;;;;;;0.38;100.00;100816.22;5073318;28;20478;-50
2023/03/11 04:26:13;;;;;;;7.35;1.30;;;;;;;0.32;100.00;100817.53;5073003;28;20035;-49
2023/03/11 04:28:39;;;;;;;13.65;1.15;;;;;;;0.26;100.00;100814.50;5072877;28;20025;-49
2023/03/11 04:31:04;;;;;;;6.78;1.05;;;;;;;0.19;100.00;100820.25;5072419;28;20409;-52
2023/03/11 04:33:30;;;;;;;4.22;0.68;;;;;;;0.16;100.00;100819.66;5065594;28;20104;-49
2023/03/11 04:35:55;;;;;;;6.85;0.82;;;;;;;0.11;100.00;100825.28;5073275;28;20032;-49
2023/03/11 04:38:21;;;;;;;6.32;1.10;;;;;;;0.08;100.00;100829.94;5072839;28;20103;-50
2023/03/11 04:40:46;;;;;;;11.48;2.00;;;;;;;0.03;100.00;100838.25;5072084;28;20028;-49
2023/03/11 04:43:12;;;;;;;19.63;1.20;;;;;;;0.00;100.00;100838.50;5072754;28;20040;-48
2023/03/11 04:45:38;;;;;;;7.95;1.00;;;;;;;-0.04;100.00;100834.38;5072612;28;20116;-49
2023/03/11 04:48:03;;;;;;;5.13;1.67;;;;;;;-0.06;100.00;100839.75;5072843;28;20427;-52
2023/03/11 04:50:29;;;;;;;11.32;1.10;;;;;;;-0.13;100.00;100840.31;5072088;28;20042;-52
2023/03/11 04:52:55;;;;;;;6.03;1.10;;;;;;;-0.18;100.00;100826.63;5071963;28;20379;-50
2023/03/11 04:55:20;;;;;;;7.97;1.95;;;;;;;-0.28;100.00;100835.22;5072362;28;20079;-50
2023/03/11 04:57:46;;;;;;;10.75;1.17;;;;;;;-0.37;100.00;100840.31;5070868;28;20042;-49
2023/03/11 05:00:11;;;;;;;10.00;1.10;;;;;;;-0.45;100.00;100844.38;5069076;28;20471;-49
2023/03/11 05:02:38;;;;;;;14.60;0.90;;;;;;;-0.50;100.00;100846.53;5071840;28;20370;-51
2023/03/11 05:05:04;;;;;;;8.07;0.88;;;;;;;-0.56;100.00;100851.38;5072215;28;20040;-49
2023/03/11 05:07:29;;;;;;;10.15;1.75;;;;;;;-0.62;100.00;100847.38;5072492;28;20397;-49
2023/03/11 05:09:55;;;;;;;13.15;1.25;;;;;;;-0.68;100.00;100864.53;5072422;28;20040;-49
2023/03/11 05:12:20;;;;;;;8.90;0.93;;;;;;;-0.75;100.00;100858.00;5072336;28;20032;-49
2023/03/11 05:14:45;;;;;;;3.90;0.88;;;;;;;-0.77;100.00;100864.34;5072394;28;20063;-49
2023/03/11 05:17:12;;;;;;;12.77;1.10;;;;;;;-0.86;100.00;100865.84;5072354;28;20506;-49
2023/03/11 05:19:38;;;;;;;12.73;1.20;;;;;;;-0.90;100.00;100864.34;5071637;28;20044;-50
2023/03/11 05:22:04;;;;;;;5.57;1.00;;;;;;;-0.93;100.00;100864.56;5071330;28;20031;-51
2023/03/11 05:24:30;;;;;;;7.70;1.17;;;;;;;-1.00;100.00;100876.50;5072118;28;20032;-50
2023/03/11 05:26:56;;;;;;;8.20;0.90;;;;;;;-1.04;100.00;100870.59;5071546;28;20102;-49
2023/03/11 05:29:21;;;;;;;11.52;1.27;;;;;;;-1.08;100.00;100870.91;5072194;28;20020;-50
2023/03/11 05:31:47;;;;;;;6.95;1.05;;;;;;;-1.14;100.00;100875.66;5070364;28;20040;-48
2023/03/11 05:34:13;;;;;;;7.63;1.60;;;;;;;-1.17;100.00;100873.25;5057525;28;20481;-49
2023/03/11 05:36:38;;;;;;;8.18;1.50;;;;;;;-1.19;100.00;100883.06;5071674;28;20116;-52
2023/03/11 05:39:04;;;;;;;7.68;1.50;;;;;;;-1.24;100.00;100886.97;5072074;28;20463;-52
2023/03/11 05:41:29;;;;;;;9.63;1.23;;;;;;;-1.29;100.00;100887.31;5068751;28;20458;-48
2023/03/11 05:43:55;;;;;;;7.40;1.42;;;;;;;-1.34;100.00;100892.88;5064225;28;20673;-53
2023/03/11 05:46:20;;;;;;;12.20;1.48;;;;;;;-1.39;100.00;100899.44;5070030;28;20443;-50
2023/03/11 05:48:46;;;;;;;10.32;1.83;;;;;;;-1.45;100.00;100900.69;5069929;28;20021;-50
2023/03/11 05:51:11;;;;;;;5.57;1.67;;;;;;;-1.47;100.00;100897.31;5061138;28;20068;-48
2023/03/11 05:53:37;;;;;;;2.42;0.90;;;;;;;-1.50;100.00;100905.44;5069083;28;20039;-50
2023/03/11 05:56:03;;;;;;;7.38;1.70;;;;;;;-1.53;100.00;100918.81;5060305;28;20055;-50
2023/03/11 05:58:30;;;;;;;4.10;1.02;;;;;;;-1.52;100.00;100915.25;5050432;28;20537;-50
2023/03/11 06:00:55;;;;;;;16.80;1.33;;;;;;;-1.53;100.00;100912.69;5054846;28;20051;-49
2023/03/11 06:03:21;;;;;;;11.70;1.20;;;;;;;-1.55;100.00;100916.28;5069787;28;20032;-48
2023/03/11 06:05:47;;;;;;;12.55;1.35;;;;;;;-1.57;100.00;100912.91;5048832;28;20029;-49
2023/03/11 06:08:13;;;;;;;7.10;1.20;;;;;;;-1.57;100.00;100920.81;5051329;28;20097;-48
2023/03/11 06:10:38;;;;;;;7.68;1.50;;;;;;;-1.57;100.00;100923.47;5069232;28;20025;-49
2023/03/11 06:13:04;;;;;;;17.98;1.25;;;;;;;-1.52;100.00;100930.25;5063392;28;20407;-51
2023/03/11 06:15:35;;;;;;;11.52;2.25;;;;;;;-1.54;100.00;100922.41;5064347;28;20074;-49
2023/03/11 06:18:00;;;;;;;15.38;2.28;;;;;;;-1.51;100.00;100926.66;5061382;28;20021;-49
2023/03/11 06:20:27;;;;;;;15.75;3.00;;;;;;;-1.51;100.00;100935.41;5052312;28;20075;-48
2023/03/11 06:22:52;;;;;;;8.57;2.95;;;;;;;-1.47;100.00;100936.06;5060840;28;20021;-50
2023/03/11 06:25:18;;;;;;;8.73;2.30;;;;;;;-1.44;100.00;100941.13;5066578;28;20118;-51
2023/03/11 06:27:49;;;;;;;5.45;1.85;;;;;;;-1.41;100.00;100948.84;5051870;28;20036;-48
2023/03/11 06:30:15;;;;;;;9.75;2.42;;;;;;;-1.37;100.00;100942.38;5066600;28;20357;-50
2023/03/11 06:32:43;;;;;;;13.80;1.88;;;;;;;-1.31;100.00;100949.91;5067278;28;20017;-49
2023/03/11 06:35:08;;;;;;;7.47;1.73;;;;;;;-1.25;100.00;100949.50;5066162;28;20020;-49
2023/03/11 06:37:37;;;;;;;5.18;1.40;;;;;;;-1.18;100.00;100956.06;5063220;28;20260;-49
2023/03/11 06:40:04;;;;;;;9.75;1.73;;;;;;;-1.09;100.00;100956.41;5064423;28;20558;-49
2023/03/11 06:42:30;;;;;;;6.68;1.67;;;;;;;-0.94;100.00;100958.84;5065635;28;20028;-49
2023/03/11 06:44:55;;;;;;;8.50;1.80;;;;;;;-0.57;100.00;100969.50;5067305;28;20313;-50
2023/03/11 06:47:21;;;;;;;11.20;1.98;;;;;;;-0.24;100.00;100976.88;5069410;28;20028;-49
2023/03/11 06:49:46;;;;;;;13.07;2.60;;;;;;;0.04;100.00;100968.75;5067686;28;20489;-50
2023/03/11 06:52:11;;;;;;;11.77;2.35;;;;;;;0.39;100.00;100959.06;5076203;28;20023;-52
2023/03/11 06:54:37;;;;;;;25.67;2.85;;;;;;;0.87;100.00;100966.13;5071227;28;20071;-49
2023/03/11 06:57:02;;;;;;;11.75;2.30;;;;;;;1.29;100.00;100966.41;5068214;28;20028;-51
2023/03/11 06:59:27;;;;;;;15.43;2.25;;;;;;;1.82;100.00;100958.72;5071492;28;20436;-48
2023/03/11 07:01:53;;;;;;;9.18;3.05;;;;;;;2.23;100.00;100957.19;5069495;28;20321;-49
2023/03/11 07:04:19;;;;;;;11.82;3.22;;;;;;;2.58;100.00;100956.06;5068497;28;20040;-50
2023/03/11 07:06:45;;;;;;;14.27;2.63;;;;;;;2.68;100.00;100950.84;5069233;28;20020;-49
2023/03/11 07:09:10;;;;;;;16.77;3.70;;;;;;;2.78;100.00;100949.13;5069315;28;20094;-50
2023/03/11 07:11:36;;;;;;;11.95;2.10;;;;;;;2.97;100.00;100962.53;5066035;28;20025;-50
2023/03/11 07:14:01;;;;;;;15.35;2.83;;;;;;;3.16;100.00;100967.16;5068813;28;20028;-49
2023/03/11 07:16:29;;;;;;;8.30;3.08;;;;;;;3.36;100.00;100972.56;5068820;28;20522;-49
2023/03/11 07:18:57;;;;;;;18.85;2.80;;;;;;;3.47;100.00;100969.81;5068969;28;20045;-50
2023/03/11 07:21:23;;;;;;;18.80;4.03;;;;;;;3.52;100.00;100976.41;5069242;28;20032;-50
2023/03/11 07:23:53;;;;;;;22.15;3.80;;;;;;;3.63;100.00;100967.50;5069120;28;20157;-49
2023/03/11 07:26:19;;;;;;;15.57;3.72;;;;;;;3.96;100.00;100954.88;5069574;28;20032;-50
2023/03/11 07:28:45;;;;;;;24.75;3.53;;;;;;;4.31;100.00;100969.53;5062286;28;20032;-50
2023/03/11 07:31:13;;;;;;;13.98;3.17;;;;;;;4.76;100.00;100963.63;5050381;28;20021;-49
2023/03/11 07:33:38;;;;;;;20.85;4.20;;;;;;;4.74;100.00;100960.25;5062965;28;20049;-49
2023/03/11 07:36:14;;;;;;;21.15;3.90;;;;;;;4.97;100.00;100971.47;5068662;28;20226;-49
2023/03/11 07:38:40;;;;;;;22.88;4.88;;;;;;;5.30;100.00;100972.84;5068495;28;20158;-51
2023/03/11 07:41:06;;;;;;;25.60;4.63;;;;;;;5.76;100.00;100967.59;5068216;28;20107;-49
2023/03/11 07:43:32;;;;;;;20.55;3.70;;;;;;;6.57;100.00;100983.75;5072281;28;20507;-50
2023/03/11 07:46:17;;;;;;;19.75;3.05;;;;;;;7.37;95.56;100991.75;5072840;28;20108;-50
2023/03/11 07:48:43;;;;;;;23.58;3.67;;;;;;;7.92;88.64;100991.38;5068592;28;20036;-50
2023/03/11 07:51:09;;;;;;;18.67;4.00;;;;;;;8.36;85.54;100994.72;5072307;28;20028;-49
2023/03/11 07:53:35;;;;;;;16.13;3.00;;;;;;;8.52;83.61;100993.94;5056115;28;20055;-50
2023/03/11 07:56:01;;;;;;;39.45;4.38;;;;;;;8.49;76.70;100994.28;5052728;28;20495;-50
2023/03/11 07:58:26;;;;;;;23.05;3.53;;;;;;;8.85;75.84;101006.59;5058666;28;20035;-52
2023/03/11 08:00:53;;;;;;;38.90;4.15;;;;;;;9.32;76.13;100996.00;5063374;28;20029;-49
2023/03/11 08:03:18;;;;;;;22.15;4.93;;;;;;;9.52;69.33;101006.38;5052484;28;20025;-49
2023/03/11 08:05:44;;;;;;;23.83;3.30;;;;;;;9.76;68.17;101008.97;5053716;28;20079;-51
2023/03/11 08:08:09;;;;;;;23.45;2.88;;;;;;;10.09;64.74;101008.88;5060591;28;20028;-52
2023/03/11 08:10:38;;;;;;;23.95;3.45;;;;;;;11.00;66.08;101010.03;5071825;28;20144;-49
2023/03/11 08:13:04;;;;;;;22.73;2.20;;;;;;;11.30;57.43;101019.03;5071491;28;20043;-51
2023/03/11 08:15:29;;;;;;;16.80;2.50;;;;;;;11.79;57.85;101020.41;5067591;28;20112;-51
2023/03/11 08:17:55;;;;;;;17.35;2.15;;;;;;;11.59;53.62;101028.22;5072264;28;20024;-52
2023/03/11 08:20:20;;;;;;;14.70;1.98;;;;;;;11.59;53.57;101037.13;5071772;28;20060;-49
2023/03/11 08:22:45;;;;;;;17.17;3.15;;;;;;;11.80;50.84;101032.88;5072019;28;20029;-48
2023/03/11 08:25:11;;;;;;;23.58;2.13;;;;;;;11.77;51.60;101030.53;5071991;28;20025;-50
2023/03/11 08:27:37;;;;;;;12.55;2.30;;;;;;;11.48;51.67;101032.19;5071813;28;20056;-49
2023/03/11 08:30:04;;;;;;;20.02;2.47;;;;;;;12.92;49.95;101025.31;5071579;28;20101;-49
2023/03/11 08:32:30;;;;;;;15.88;2.30;;;;;;;13.36;45.46;101027.00;5071836;28;20020;-51
2023/03/11 08:34:56;;;;;;;8.18;1.88;;;;;;;13.26;44.77;101025.63;5071874;28;20544;-50
2023/03/11 08:37:21;;;;;;;18.75;2.35;;;;;;;13.83;44.38;101030.88;5071605;28;20052;-48
2023/03/11 08:39:46;;;;;;;10.20;2.15;;;;;;;13.52;41.27;101033.16;5071313;28;20024;-48
2023/03/11 08:42:12;;;;;;;20.40;2.80;;;;;;;13.39;42.89;101040.13;5071556;28;20415;-49
2023/03/11 08:44:37;;;;;;;19.20;2.53;;;;;;;13.43;41.59;101050.53;5070927;28;20032;-50
2023/03/11 08:47:03;;;;;;;33.55;3.45;;;;;;;14.08;43.19;101046.59;5071659;28;20386;-50
2023/03/11 08:49:28;;;;;;;16.05;2.30;;;;;;;13.49;43.41;101041.66;5071374;28;20128;-49
2023/03/11 08:51:54;;;;;;;12.13;1.80;;;;;;;12.62;43.78;101042.66;5071663;28;20036;-50
2023/03/11 08:54:19;;;;;;;20.60;2.42;;;;;;;11.92;45.86;101039.50;5071296;28;20025;-50
2023/03/11 08:56:46;;;;;;;15.73;2.22;;;;;;;12.33;46.09;101036.31;5071557;28;20032;-50
2023/03/11 08:59:12;;;;;;;14.43;2.08;;;;;;;12.79;46.21;101040.56;5069972;28;20078;-48
2023/03/11 09:01:37;;;;;;;14.75;2.58;;;;;;;13.31;41.98;101042.97;5071336;28;20032;-50
2023/03/11 09:04:03;;;;;;;15.13;2.13;;;;;;;13.14;40.80;101047.78;5071356;28;20531;-49
2023/03/11 09:06:29;;;;;;;11.85;1.92;;;;;;;12.27;40.82;101055.97;5071799;28;20036;-51
2023/03/11 09:08:55;;;;;;;21.40;2.38;;;;;;;12.66;41.85;101057.44;5071680;28;20052;-50
2023/03/11 09:11:21;;;;;;;32.00;2.67;;;;;;;11.20;43.32;101061.56;5071284;28;20052;-49
2023/03/11 09:13:47;;;;;;;25.98;2.45;;;;;;;11.12;46.89;101073.22;5071388;28;20138;-49
2023/03/11 09:16:17;;;;;;;12.02;1.65;;;;;;;11.20;45.00;101056.16;5070934;28;20132;-49
2023/03/11 09:18:43;;;;;;;31.38;1.90;;;;;;;11.07;44.15;101056.78;5071042;28;20032;-50
2023/03/11 09:21:09;;;;;;;29.95;2.00;;;;;;;10.54;45.71;101055.78;5071062;28;20019;-49
2023/03/11 09:23:34;;;;;;;20.35;1.45;;;;;;;10.20;48.12;101059.59;5069769;28;20039;-48
2023/03/11 09:25:59;;;;;;;23.25;2.28;;;;;;;10.00;49.20;101064.53;5071207;28;20108;-50
2023/03/11 09:28:25;;;;;;;17.33;1.30;;;;;;;10.13;49.87;101055.91;5070928;28;20120;-48
2023/03/11 09:30:50;;;;;;;12.18;1.27;;;;;;;10.81;49.34;101051.72;5070602;28;20374;-50
2023/03/11 09:33:15;;;;;;;11.05;1.73;;;;;;;10.86;46.78;101060.13;5070895;28;20090;-50
2023/03/11 09:35:41;;;;;;;25.55;2.00;;;;;;;11.09;47.50;101062.81;5070631;28;20399;-50
2023/03/11 09:38:06;;;;;;;14.10;1.13;;;;;;;11.12;47.68;101059.75;5071110;28;20394;-50
2023/03/11 09:40:54;;;;;;;7.18;1.20;;;;;;;11.04;47.75;101067.06;5070744;28;20067;-49
2023/03/11 09:43:56;;;;;;;32.47;2.40;;;;;;;11.71;44.72;101063.63;5069230;28;20029;-50
2023/03/11 09:46:28;;;;;;;16.40;1.60;;;;;;;11.57;44.51;101063.41;5070397;28;20099;-50
2023/03/11 09:49:02;;;;;;;11.00;1.20;;;;;;;10.62;48.18;101057.59;5070646;28;20032;-52
2023/03/11 09:51:35;;;;;;;15.45;1.60;;;;;;;10.30;46.00;101073.72;5070179;28;20022;-49
2023/03/11 09:54:03;;;;;;;18.90;1.50;;;;;;;9.81;45.66;101065.75;5069464;28;20058;-50
2023/03/11 09:56:30;;;;;;;32.00;1.98;;;;;;;9.33;48.38;101067.50;5069092;28;20027;-51
2023/03/11 09:59:01;;;;;;;15.77;2.55;;;;;;;9.05;48.05;101074.19;5068779;28;20044;-49
2023/03/11 10:01:28;;;;;;;10.98;1.27;;;;;;;8.68;47.68;101072.78;5068821;28;20031;-48
2023/03/11 10:03:56;;;;;;;12.23;1.52;;;;;;;8.57;50.18;101071.25;5070364;28;20028;-50
2023/03/11 10:06:24;;;;;;;18.23;1.48;;;;;;;8.92;48.74;101070.16;5067965;28;20102;-51
2023/03/11 10:08:55;;;;;;;9.15;0.68;;;;;;;8.57;48.63;101061.34;5070217;28;20439;-49
2023/03/11 10:11:23;;;;;;;14.13;1.25;;;;;;;8.41;49.99;101061.31;5070205;28;20530;-50
2023/03/11 10:13:51;;;;;;;;;;;;;;;8.52;52.05;101062.84;5070706;28;20024;-49
2023/03/11 10:16:23;;;;;;;;;;;;;;;8.48;52.53;101059.66;5070431;28;19908;-49
2023/03/11 10:19:02;;;;;;;8.40;0.95;;;;;;;8.61;48.31;101058.34;5069850;28;20550;-50
2023/03/11 10:21:47;;;;;;;11.93;1.30;;;;;;;8.10;51.23;101060.97;5068570;28;20040;-48
2023/03/11 10:24:36;;;;;;;7.75;0.98;;;;;;;7.87;48.31;101060.69;5070023;28;20024;-48
2023/03/11 10:27:08;;;;;;;6.38;1.20;;;;;;;7.82;49.50;101060.31;5069724;28;20040;-50
2023/03/11 10:29:47;;;;;;;15.80;2.72;;;;;;;8.17;48.95;101061.19;5068899;28;20119;-49
2023/03/11 10:32:15;;;;;;;10.75;1.02;;;;;;;8.35;49.74;101056.59;5070129;28;20036;-50
2023/03/11 10:34:55;;;;;;;13.65;1.05;;;;;;;8.54;48.78;101060.84;5070222;28;20021;-51
2023/03/11 10:37:26;;;;;;;5.38;1.00;;;;;;;8.28;50.24;101058.22;5068529;28;20387;-49
2023/03/11 10:39:52;;;;;;;19.52;1.80;;;;;;;8.48;48.18;101061.53;5068694;28;20029;-52
2023/03/11 10:42:21;;;;;;;14.07;0.98;;;;;;;8.80;47.65;101068.81;5068579;28;20378;-52
2023/03/11 10:44:47;;;;;;;12.43;1.08;;;;;;;8.71;50.49;101072.47;5068926;28;20021;-50
2023/03/11 10:47:23;;;;;;;16.30;0.80;;;;;;;8.80;52.17;101068.81;5069476;28;20035;-50
2023/03/11 10:49:49;;;;;;;15.98;1.08;;;;;;;9.08;50.57;101074.69;5069755;28;20573;-49
2023/03/11 10:52:14;;;;;;;4.70;0.80;;;;;;;9.14;49.62;101073.22;5069149;28;20160;-50
2023/03/11 10:54:44;;;;;;;7.47;1.25;;;;;;;8.90;48.30;101069.50;5069259;28;20483;-48
2023/03/11 10:57:27;;;;;;;6.03;0.82;;;;;;;8.79;47.83;101075.16;5055225;28;20032;-48
2023/03/11 10:59:57;;;;;;;7.85;0.65;;;;;;;8.51;47.19;101078.13;5069675;28;20031;-48
2023/03/11 11:02:36;;;;;;;3.90;0.65;;;;;;;8.53;46.30;101089.53;5069073;28;20033;-50
2023/03/11 11:05:04;;;;;;;6.30;0.60;;;;;;;8.46;47.96;101080.44;5065863;28;20459;-49
2023/03/11 11:07:32;;;;;;;11.35;1.42;;;;;;;9.22;46.55;101086.66;5069437;28;20028;-49
2023/03/11 11:10:17;;;;;;;2.85;0.77;;;;;;;9.39;47.56;101077.56;5069105;28;20062;-50
2023/03/11 11:12:49;;;;;;;7.00;0.63;;;;;;;8.83;47.16;101084.56;5049146;28;20036;-49
2023/03/11 11:15:32;;;;;;;11.05;1.20;;;;;;;8.55;47.28;101092.03;5063639;28;20101;-49
2023/03/11 11:18:00;;;;;;;7.15;0.80;;;;;;;8.60;47.75;101094.22;5061695;28;20052;-48
2023/03/11 11:20:26;;;;;;;8.93;1.00;;;;;;;8.96;50.41;101087.63;5068739;28;20049;-50
2023/03/11 11:22:54;;;;;;;9.13;1.05;;;;;;;9.29;49.77;101087.63;5070376;28;20077;-49